createdAt,value
2022-10-06T00:01:16.909Z,16.00
2022-10-06T00:03:47.044Z,16.00
2022-10-06T00:06:18.118Z,16.00
2022-10-06T00:08:48.028Z,16.10
2022-10-06T00:11:17.735Z,16.00
2022-10-06T00:13:46.883Z,16.00
2022-10-06T00:16:18.518Z,16.00
2022-10-06T00:18:48.357Z,16.00
2022-10-06T00:21:17.662Z,15.90
2022-10-06T00:23:45.830Z,15.90
2022-10-06T00:26:16.903Z,15.90
2022-10-06T00:28:47.560Z,15.90
2022-10-06T00:31:16.465Z,15.90
2022-10-06T00:33:44.666Z,15.90
2022-10-06T00:36:15.835Z,15.80
2022-10-06T00:38:44.064Z,15.80
2022-10-06T00:41:16.279Z,15.80
2022-10-06T00:43:52.242Z,15.70
2022-10-06T00:46:29.390Z,15.70
2022-10-06T00:49:06.260Z,15.70
2022-10-06T00:51:41.502Z,15.70
2022-10-06T00:54:10.753Z,15.70
2022-10-06T00:56:40.855Z,15.70
2022-10-06T00:59:13.695Z,15.60
2022-10-06T01:01:48.815Z,15.60
2022-10-06T01:04:19.071Z,15.60
2022-10-06T01:06:55.099Z,15.60
2022-10-06T01:09:25.015Z,15.50
2022-10-06T01:12:04.353Z,15.50
2022-10-06T01:14:33.542Z,15.50
2022-10-06T01:17:08.501Z,15.40
2022-10-06T01:19:48.544Z,15.30
2022-10-06T01:22:27.379Z,15.30
2022-10-06T01:24:56.238Z,15.30
2022-10-06T01:27:27.720Z,15.20
2022-10-06T01:29:58.599Z,15.20
2022-10-06T01:32:34.159Z,15.10
2022-10-06T01:35:02.395Z,15.00
2022-10-06T01:37:32.026Z,15.00
2022-10-06T01:40:00.415Z,15.00
2022-10-06T01:42:31.843Z,14.90
2022-10-06T01:45:00.670Z,14.90
2022-10-06T01:47:29.262Z,14.90
2022-10-06T01:49:57.892Z,14.90
2022-10-06T01:52:26.486Z,14.80
2022-10-06T01:54:56.007Z,14.70
2022-10-06T01:57:25.077Z,14.70
2022-10-06T01:59:55.010Z,14.70
2022-10-06T02:02:24.941Z,14.70
2022-10-06T02:04:53.568Z,14.70
2022-10-06T02:07:21.838Z,14.70
2022-10-06T02:09:50.274Z,14.70
2022-10-06T02:12:20.505Z,14.60
2022-10-06T02:14:48.992Z,14.60
2022-10-06T02:17:17.104Z,14.60
2022-10-06T02:19:45.300Z,14.60
2022-10-06T02:22:13.566Z,14.60
2022-10-06T02:24:42.347Z,14.50
2022-10-06T02:27:10.785Z,14.50
2022-10-06T02:29:41.150Z,14.50
2022-10-06T02:32:10.729Z,14.50
2022-10-06T02:34:39.246Z,14.50
2022-10-06T02:37:07.532Z,14.50
2022-10-06T02:39:35.909Z,14.60
2022-10-06T02:42:05.899Z,14.60
2022-10-06T02:44:34.138Z,14.60
2022-10-06T02:47:04.706Z,14.60
2022-10-06T02:49:32.986Z,14.50
2022-10-06T02:52:01.271Z,14.50
2022-10-06T02:54:29.825Z,14.50
2022-10-06T02:56:59.342Z,14.50
2022-10-06T02:59:27.760Z,14.50
2022-10-06T03:01:56.830Z,14.40
2022-10-06T03:04:27.603Z,14.50
2022-10-06T03:06:56.152Z,14.30
2022-10-06T03:09:26.206Z,14.30
2022-10-06T03:11:54.962Z,14.30
2022-10-06T03:14:35.440Z,14.30
2022-10-06T03:17:04.958Z,14.30
2022-10-06T03:19:34.487Z,14.30
2022-10-06T03:22:02.947Z,14.40
2022-10-06T03:24:39.469Z,14.30
2022-10-06T03:27:07.651Z,14.30
2022-10-06T03:29:35.963Z,14.30
2022-10-06T03:32:05.479Z,14.20
2022-10-06T03:34:35.997Z,14.20
2022-10-06T03:37:07.305Z,14.20
2022-10-06T03:39:35.482Z,14.20
2022-10-06T03:42:03.722Z,14.20
2022-10-06T03:44:34.803Z,14.10
2022-10-06T03:47:03.323Z,14.00
2022-10-06T03:49:32.745Z,14.00
2022-10-06T03:52:02.238Z,14.00
2022-10-06T03:54:34.712Z,13.90
2022-10-06T03:57:03.096Z,13.90
2022-10-06T03:59:34.117Z,13.90
2022-10-06T04:02:05.282Z,13.90
2022-10-06T04:04:38.126Z,13.90
2022-10-06T04:07:11.117Z,13.90
2022-10-06T04:09:40.147Z,13.80
2022-10-06T04:12:10.201Z,13.80
2022-10-06T04:14:40.121Z,13.80
2022-10-06T04:17:09.394Z,13.80
2022-10-06T04:19:40.460Z,13.80
2022-10-06T04:22:10.404Z,13.80
2022-10-06T04:24:38.697Z,13.80
2022-10-06T04:27:29.897Z,13.80
2022-10-06T04:30:17.234Z,13.80
2022-10-06T04:32:45.983Z,13.70
2022-10-06T04:35:14.563Z,13.70
2022-10-06T04:37:44.404Z,13.60
2022-10-06T04:40:12.900Z,13.70
2022-10-06T04:42:43.378Z,13.60
2022-10-06T04:45:15.412Z,13.60
2022-10-06T04:47:44.778Z,13.50
2022-10-06T04:50:13.272Z,13.50
2022-10-06T04:53:03.115Z,13.40
2022-10-06T04:55:31.655Z,13.40
2022-10-06T04:57:59.876Z,13.40
2022-10-06T05:00:28.582Z,13.40
2022-10-06T05:02:57.983Z,13.40
2022-10-06T05:05:26.158Z,13.40
2022-10-06T05:07:56.155Z,13.40
2022-10-06T05:10:25.960Z,13.30
2022-10-06T05:12:54.172Z,13.30
2022-10-06T05:15:22.518Z,13.30
2022-10-06T05:17:50.726Z,13.30
2022-10-06T05:20:22.785Z,13.30
2022-10-06T05:22:51.349Z,13.30
2022-10-06T05:25:19.852Z,13.30
2022-10-06T05:27:49.455Z,13.30
2022-10-06T05:30:17.834Z,13.30
2022-10-06T05:32:50.311Z,13.30
2022-10-06T05:35:19.251Z,13.30
2022-10-06T05:37:47.707Z,13.30
2022-10-06T05:40:16.427Z,13.30
2022-10-06T05:42:44.513Z,13.20
2022-10-06T05:45:14.447Z,13.30
2022-10-06T05:47:42.582Z,13.30
2022-10-06T05:50:11.089Z,13.20
2022-10-06T05:52:39.445Z,13.20
2022-10-06T05:55:10.148Z,13.20
2022-10-06T05:57:38.582Z,13.30
2022-10-06T06:00:09.015Z,13.30
2022-10-06T06:02:42.708Z,13.20
2022-10-06T06:05:12.945Z,13.20
2022-10-06T06:07:41.677Z,13.20
2022-10-06T06:10:10.377Z,13.10
2022-10-06T06:12:38.549Z,13.20
2022-10-06T06:15:56.347Z,13.20
2022-10-06T06:18:26.025Z,13.20
2022-10-06T06:20:58.679Z,13.20
2022-10-06T06:23:32.060Z,13.20
2022-10-06T06:26:02.990Z,13.20
2022-10-06T06:28:36.887Z,13.20
2022-10-06T06:31:08.040Z,13.20
2022-10-06T06:33:39.884Z,13.20
2022-10-06T06:36:15.001Z,13.20
2022-10-06T06:38:44.402Z,13.30
2022-10-06T06:41:19.289Z,13.30
2022-10-06T06:43:47.939Z,13.30
2022-10-06T06:46:32.305Z,13.30
2022-10-06T06:49:08.268Z,13.40
2022-10-06T06:51:42.780Z,13.40
2022-10-06T06:54:13.108Z,13.40
2022-10-06T06:56:45.601Z,13.40
2022-10-06T06:59:14.741Z,13.40
2022-10-06T07:01:47.376Z,13.50
2022-10-06T07:04:19.481Z,13.50
2022-10-06T07:06:53.208Z,13.50
2022-10-06T07:09:22.286Z,13.60
2022-10-06T07:11:51.774Z,13.60
2022-10-06T07:14:24.249Z,13.60
2022-10-06T07:17:11.329Z,13.70
2022-10-06T07:20:02.709Z,13.70
2022-10-06T07:22:50.707Z,13.70
2022-10-06T07:25:26.679Z,13.70
2022-10-06T07:28:06.854Z,13.80
2022-10-06T07:30:41.085Z,13.80
2022-10-06T07:33:18.023Z,13.90
2022-10-06T07:35:48.093Z,13.90
2022-10-06T07:38:19.481Z,13.90
2022-10-06T07:41:17.816Z,14.00
2022-10-06T07:43:45.635Z,14.00
2022-10-06T07:46:14.989Z,14.10
2022-10-06T07:48:57.737Z,14.10
2022-10-06T07:51:28.147Z,14.20
2022-10-06T07:53:58.582Z,14.30
2022-10-06T07:56:40.614Z,14.30
2022-10-06T07:59:08.957Z,14.30
2022-10-06T08:01:37.091Z,14.30
2022-10-06T08:04:06.675Z,14.40
2022-10-06T08:06:36.602Z,14.40
2022-10-06T08:09:05.715Z,14.50
2022-10-06T08:11:34.382Z,14.50
2022-10-06T08:14:04.062Z,14.70
2022-10-06T08:16:33.452Z,14.70
2022-10-06T08:19:01.756Z,14.70
2022-10-06T08:21:34.296Z,14.70
2022-10-06T08:24:03.902Z,14.60
2022-10-06T08:26:33.171Z,14.70
2022-10-06T08:29:04.151Z,14.70
2022-10-06T08:31:33.179Z,14.90
2022-10-06T08:34:01.507Z,14.90
2022-10-06T08:36:32.231Z,15.00
2022-10-06T08:39:01.346Z,15.00
2022-10-06T08:41:43.192Z,15.00
2022-10-06T08:44:30.284Z,15.10
2022-10-06T08:47:07.751Z,15.20
2022-10-06T08:49:40.825Z,15.10
2022-10-06T08:52:27.321Z,15.20
2022-10-06T08:55:08.343Z,15.20
2022-10-06T08:57:51.315Z,15.30
2022-10-06T09:00:21.460Z,15.20
2022-10-06T09:02:51.860Z,15.30
2022-10-06T09:05:25.186Z,15.40
2022-10-06T09:08:16.204Z,15.50
2022-10-06T09:10:59.626Z,15.50
2022-10-06T09:13:36.376Z,15.60
2022-10-06T09:16:09.537Z,15.70
2022-10-06T09:21:41.899Z,15.80
2022-10-06T09:24:17.087Z,15.70
2022-10-06T09:26:49.498Z,15.60
2022-10-06T09:29:20.069Z,15.70
2022-10-06T09:31:50.299Z,15.90
2022-10-06T09:34:27.027Z,16.00
2022-10-06T09:37:02.995Z,16.10
2022-10-06T09:39:36.717Z,16.10
2022-10-06T09:42:16.680Z,16.00
2022-10-06T09:44:58.005Z,16.20
2022-10-06T09:47:40.848Z,16.20
2022-10-06T09:50:22.760Z,16.30
2022-10-06T09:53:13.812Z,16.40
2022-10-06T09:55:51.320Z,16.20
2022-10-06T09:58:25.882Z,16.20
2022-10-06T10:01:00.012Z,16.10
2022-10-06T10:04:01.850Z,16.20
2022-10-06T10:06:36.064Z,16.40
2022-10-06T10:09:29.321Z,16.50
2022-10-06T10:12:29.751Z,16.50
2022-10-06T10:15:05.125Z,16.50
2022-10-06T10:17:41.718Z,16.50
2022-10-06T10:20:29.067Z,16.50
2022-10-06T10:23:02.254Z,16.70
2022-10-06T10:26:04.054Z,16.90
2022-10-06T10:29:10.754Z,16.90
2022-10-06T10:31:56.030Z,17.00
2022-10-06T10:34:55.357Z,17.00
2022-10-06T10:37:34.445Z,17.10
2022-10-06T10:40:13.756Z,16.90
2022-10-06T10:42:49.630Z,16.80
2022-10-06T10:45:27.362Z,16.60
2022-10-06T10:47:57.622Z,16.50
2022-10-06T10:50:32.986Z,16.50
2022-10-06T10:53:11.201Z,16.60
2022-10-06T10:55:45.435Z,16.70
2022-10-06T10:58:22.013Z,16.60
2022-10-06T11:00:57.510Z,16.60
2022-10-06T11:03:25.829Z,16.70
2022-10-06T11:06:26.758Z,16.80
2022-10-06T11:09:02.600Z,17.00
2022-10-06T11:11:55.590Z,16.90
2022-10-06T11:14:51.633Z,16.90
2022-10-06T11:17:44.173Z,17.00
2022-10-06T11:20:41.562Z,17.00
2022-10-06T11:23:38.983Z,17.20
2022-10-06T11:26:24.529Z,17.40
2022-10-06T11:29:02.118Z,17.60
2022-10-06T11:31:36.602Z,17.60
2022-10-06T11:34:07.349Z,17.60
2022-10-06T11:36:47.648Z,17.70
2022-10-06T11:39:28.227Z,17.60
2022-10-06T11:42:07.716Z,17.60
2022-10-06T11:44:43.029Z,17.60
2022-10-06T11:47:28.183Z,17.70
2022-10-06T11:50:02.843Z,17.70
2022-10-06T11:52:47.570Z,17.70
2022-10-06T11:55:21.056Z,17.70
2022-10-06T12:01:02.096Z,17.70
2022-10-06T12:03:49.253Z,17.60
2022-10-06T12:06:59.498Z,17.50
2022-10-06T12:09:53.499Z,17.60
2022-10-06T12:13:31.728Z,17.60
2022-10-06T12:19:24.589Z,17.30
2022-10-06T12:22:03.408Z,17.00
2022-10-06T12:24:43.260Z,16.80
2022-10-06T12:27:31.461Z,16.70
2022-10-06T12:30:07.254Z,16.80
2022-10-06T12:32:50.348Z,16.80
2022-10-06T12:35:39.885Z,16.70
2022-10-06T12:39:12.629Z,16.60
2022-10-06T12:42:01.054Z,16.40
2022-10-06T12:44:36.382Z,16.50
2022-10-06T12:47:15.570Z,16.60
2022-10-06T12:49:51.994Z,16.60
2022-10-06T12:52:47.911Z,16.70
2022-10-06T12:55:42.962Z,16.90
2022-10-06T12:58:19.560Z,16.90
2022-10-06T13:00:48.621Z,17.10
2022-10-06T13:03:24.074Z,17.10
2022-10-06T13:05:55.911Z,17.30
2022-10-06T13:08:27.798Z,17.30
2022-10-06T13:11:19.505Z,17.50
2022-10-06T13:13:50.582Z,17.60
2022-10-06T13:16:21.550Z,17.70
2022-10-06T13:18:58.213Z,17.60
2022-10-06T13:21:30.812Z,17.50
2022-10-06T13:23:59.138Z,17.40
2022-10-06T13:26:32.101Z,17.20
2022-10-06T13:29:01.835Z,17.10
2022-10-06T13:31:32.288Z,17.20
2022-10-06T13:34:06.369Z,17.10
2022-10-06T13:36:38.723Z,17.10
2022-10-06T13:39:12.506Z,17.10
2022-10-06T13:41:46.741Z,17.20
2022-10-06T13:44:34.751Z,17.20
2022-10-06T13:47:07.254Z,17.30
2022-10-06T13:49:52.125Z,17.20
2022-10-06T13:52:26.198Z,17.10
2022-10-06T13:54:57.769Z,17.20
2022-10-06T13:57:38.211Z,17.20
2022-10-06T14:00:19.617Z,17.20
2022-10-06T14:02:50.553Z,17.20
2022-10-06T14:05:40.055Z,17.20
2022-10-06T14:08:24.130Z,17.30
2022-10-06T14:10:56.543Z,17.30
2022-10-06T14:13:29.275Z,17.30
2022-10-06T14:16:01.884Z,17.30
2022-10-06T14:18:38.497Z,17.30
2022-10-06T14:21:30.046Z,17.40
2022-10-06T14:24:00.037Z,17.30
2022-10-06T14:26:32.201Z,17.30
2022-10-06T14:29:00.677Z,17.30
2022-10-06T14:31:31.762Z,17.20
2022-10-06T14:34:00.526Z,17.30
2022-10-06T14:36:32.838Z,17.30
2022-10-06T14:39:06.853Z,17.30
2022-10-06T14:41:35.609Z,17.30
2022-10-06T14:44:06.937Z,17.30
2022-10-06T14:46:35.630Z,17.20
2022-10-06T14:49:07.457Z,17.20
2022-10-06T14:51:37.993Z,17.20
2022-10-06T14:54:10.922Z,17.30
2022-10-06T14:56:40.689Z,17.20
2022-10-06T14:59:14.415Z,17.20
2022-10-06T15:01:42.695Z,17.20
2022-10-06T15:04:13.532Z,17.20
2022-10-06T15:07:01.507Z,17.10
2022-10-06T15:09:31.245Z,17.10
2022-10-06T15:12:00.203Z,17.00
2022-10-06T15:14:29.579Z,16.90
2022-10-06T15:17:00.234Z,17.00
2022-10-06T15:19:28.723Z,16.90
2022-10-06T15:21:58.164Z,16.90
2022-10-06T15:24:26.399Z,16.90
2022-10-06T15:27:12.117Z,16.90
2022-10-06T15:29:40.252Z,16.80
2022-10-06T15:32:09.419Z,16.70
2022-10-06T15:34:38.697Z,16.70
2022-10-06T15:37:08.354Z,16.60
2022-10-06T15:39:37.866Z,16.60
2022-10-06T15:42:08.581Z,16.60
2022-10-06T15:44:37.480Z,16.60
2022-10-06T15:47:07.159Z,16.50
2022-10-06T15:49:40.242Z,16.60
2022-10-06T15:52:13.604Z,16.50
2022-10-06T15:54:42.436Z,16.60
2022-10-06T15:57:17.838Z,16.60
2022-10-06T15:59:47.741Z,16.50
2022-10-06T16:02:19.642Z,16.70
2022-10-06T16:05:16.022Z,16.50
2022-10-06T16:07:45.546Z,16.40
2022-10-06T16:10:13.715Z,16.40
2022-10-06T16:12:42.000Z,16.30
2022-10-06T16:15:11.271Z,16.30
2022-10-06T16:17:39.346Z,16.10
2022-10-06T16:20:09.536Z,16.10
2022-10-06T16:22:38.006Z,16.20
2022-10-06T16:25:08.616Z,16.10
2022-10-06T16:27:36.796Z,16.00
2022-10-06T16:30:06.434Z,15.90
2022-10-06T16:32:34.579Z,15.80
2022-10-06T16:35:02.643Z,15.80
2022-10-06T16:37:30.732Z,15.80
2022-10-06T16:39:59.200Z,15.70
2022-10-06T16:42:28.802Z,15.70
2022-10-06T16:44:57.009Z,15.70
2022-10-06T16:47:25.342Z,15.60
2022-10-06T16:49:53.585Z,15.60
2022-10-06T16:52:21.844Z,15.50
2022-10-06T16:54:49.949Z,15.50
2022-10-06T16:57:18.288Z,15.40
2022-10-06T16:59:47.897Z,15.30
2022-10-06T17:02:16.017Z,15.30
2022-10-06T17:04:44.161Z,15.20
2022-10-06T17:07:12.294Z,15.20
2022-10-06T17:09:51.113Z,15.10
2022-10-06T17:12:28.617Z,15.00
2022-10-06T17:14:58.040Z,15.00
2022-10-06T17:17:26.353Z,15.00
2022-10-06T17:19:54.670Z,15.00
2022-10-06T17:22:22.942Z,14.90
2022-10-06T17:24:51.019Z,14.90
2022-10-06T17:27:19.114Z,14.90
2022-10-06T17:29:47.224Z,14.90
2022-10-06T17:32:16.811Z,14.80
2022-10-06T17:34:45.237Z,14.80
2022-10-06T17:37:13.293Z,14.70
2022-10-06T17:39:46.709Z,14.70
2022-10-06T17:42:16.117Z,14.60
2022-10-06T17:44:44.696Z,14.60
2022-10-06T17:47:12.871Z,14.60
2022-10-06T17:49:42.287Z,14.50
2022-10-06T17:52:10.749Z,14.50
2022-10-06T17:54:38.888Z,14.40
2022-10-06T17:57:07.250Z,14.40
2022-10-06T17:59:35.319Z,14.40
2022-10-06T18:02:06.250Z,14.40
2022-10-06T18:04:35.458Z,14.30
2022-10-06T18:07:06.111Z,14.30
2022-10-06T18:09:34.201Z,14.30
2022-10-06T18:12:02.581Z,14.30
2022-10-06T18:14:33.511Z,14.30
2022-10-06T18:17:03.785Z,14.30
2022-10-06T18:19:34.609Z,14.20
2022-10-06T18:22:09.885Z,14.20
2022-10-06T18:24:38.811Z,14.20
2022-10-06T18:27:07.867Z,14.20
2022-10-06T18:29:38.866Z,14.10
2022-10-06T18:33:19.354Z,14.10
2022-10-06T18:37:46.610Z,14.00
2022-10-06T18:40:15.058Z,13.90
2022-10-06T18:42:43.263Z,13.90
2022-10-06T18:45:32.227Z,13.90
2022-10-06T18:48:25.377Z,13.80
2022-10-06T18:51:01.702Z,13.80
2022-10-06T18:53:36.251Z,13.70
2022-10-06T18:56:06.823Z,13.70
2022-10-06T18:58:40.074Z,13.70
2022-10-06T19:01:08.851Z,13.70
2022-10-06T19:03:37.297Z,13.60
2022-10-06T19:06:06.242Z,13.60
2022-10-06T19:08:35.838Z,13.60
2022-10-06T19:11:23.481Z,13.50
2022-10-06T19:13:53.326Z,13.50
2022-10-06T19:16:22.055Z,13.40
2022-10-06T19:18:50.586Z,13.50
2022-10-06T19:21:18.858Z,13.50
2022-10-06T19:23:50.263Z,13.40
2022-10-06T19:26:22.603Z,13.40
2022-10-06T19:28:53.587Z,13.30
2022-10-06T19:31:22.468Z,13.30
2022-10-06T19:33:50.995Z,13.30
2022-10-06T19:36:19.951Z,13.20
2022-10-06T19:38:55.504Z,13.10
2022-10-06T19:41:41.328Z,13.10
2022-10-06T19:44:10.797Z,13.10
2022-10-06T19:46:39.291Z,13.00
2022-10-06T19:49:08.197Z,13.00
2022-10-06T19:51:38.356Z,12.90
2022-10-06T19:54:08.543Z,12.90
2022-10-06T19:56:36.739Z,12.90
2022-10-06T19:59:05.268Z,12.90
2022-10-06T20:01:34.140Z,12.80
2022-10-06T20:04:04.967Z,12.80
2022-10-06T20:06:35.122Z,12.80
2022-10-06T20:09:06.826Z,12.80
2022-10-06T20:11:38.052Z,12.70
2022-10-06T20:14:10.359Z,12.70
2022-10-06T20:16:40.902Z,12.70
2022-10-06T20:19:12.194Z,12.60
2022-10-06T20:21:40.879Z,12.60
2022-10-06T20:24:13.466Z,12.60
2022-10-06T20:26:43.900Z,12.60
2022-10-06T20:29:14.870Z,12.60
2022-10-06T20:31:46.634Z,12.50
2022-10-06T20:34:18.401Z,12.50
2022-10-06T20:36:49.542Z,12.50
2022-10-06T20:39:40.434Z,12.50
2022-10-06T20:42:14.852Z,12.50
2022-10-06T20:44:44.121Z,12.40
2022-10-06T20:47:14.078Z,12.40
2022-10-06T20:49:42.684Z,12.50
2022-10-06T20:52:14.546Z,12.50
2022-10-06T20:54:43.247Z,12.50
2022-10-06T20:57:12.986Z,12.50
2022-10-06T20:59:41.750Z,12.50
2022-10-06T21:02:11.471Z,12.50
2022-10-06T21:04:43.371Z,12.50
2022-10-06T21:07:11.889Z,12.50
2022-10-06T21:09:40.151Z,12.50
2022-10-06T21:12:08.505Z,12.50
2022-10-06T21:14:42.131Z,12.50
2022-10-06T21:17:10.365Z,12.40
2022-10-06T21:19:39.642Z,12.40
2022-10-06T21:22:07.926Z,12.40
2022-10-06T21:24:36.204Z,12.30
2022-10-06T21:27:04.534Z,12.30
2022-10-06T21:29:32.721Z,12.30
2022-10-06T21:32:02.203Z,12.30
2022-10-06T21:34:30.502Z,12.30
2022-10-06T21:36:58.618Z,12.30
2022-10-06T21:39:26.962Z,12.30
2022-10-06T21:41:55.149Z,12.20
2022-10-06T21:44:23.457Z,12.20
2022-10-06T21:46:53.748Z,12.20
2022-10-06T21:49:25.960Z,12.20
2022-10-06T21:51:58.328Z,12.10
2022-10-06T21:54:26.444Z,12.10
2022-10-06T21:56:54.691Z,12.00
2022-10-06T21:59:22.892Z,12.10
2022-10-06T22:01:51.169Z,12.00
2022-10-06T22:04:19.514Z,12.00
2022-10-06T22:06:50.203Z,11.90
2022-10-06T22:09:20.846Z,11.90
2022-10-06T22:11:50.225Z,11.90
2022-10-06T22:14:20.179Z,11.90
2022-10-06T22:16:48.542Z,11.80
2022-10-06T22:19:17.960Z,11.80
2022-10-06T22:21:49.412Z,11.80
2022-10-06T22:24:21.243Z,11.70
2022-10-06T22:26:50.517Z,11.80
2022-10-06T22:29:22.240Z,11.80
2022-10-06T22:31:50.607Z,11.80
2022-10-06T22:34:21.321Z,11.80
2022-10-06T22:36:51.015Z,11.80
2022-10-06T22:39:19.280Z,11.70
2022-10-06T22:41:47.567Z,11.70
2022-10-06T22:44:15.830Z,11.70
2022-10-06T22:46:44.760Z,11.60
2022-10-06T22:49:13.046Z,11.60
2022-10-06T22:51:41.258Z,11.60
2022-10-06T22:54:19.742Z,11.60
2022-10-06T22:56:50.403Z,11.50
2022-10-06T22:59:18.539Z,11.50
2022-10-06T23:01:46.675Z,11.50
2022-10-06T23:04:15.082Z,11.40
2022-10-06T23:06:43.490Z,11.40
2022-10-06T23:09:14.210Z,11.40
2022-10-06T23:11:42.395Z,11.40
2022-10-06T23:14:10.761Z,11.40
2022-10-06T23:16:39.027Z,11.40
2022-10-06T23:19:07.198Z,11.40
2022-10-06T23:21:36.931Z,11.30
2022-10-06T23:24:05.358Z,11.30
2022-10-06T23:26:34.907Z,11.30
2022-10-06T23:29:04.183Z,11.30
2022-10-06T23:31:32.477Z,11.30
2022-10-06T23:34:00.715Z,11.30
2022-10-06T23:36:28.937Z,11.30
2022-10-06T23:38:57.066Z,11.30
2022-10-06T23:41:25.234Z,11.30
2022-10-06T23:43:55.682Z,11.20
2022-10-06T23:46:23.883Z,11.20
2022-10-06T23:48:52.088Z,11.10
2022-10-06T23:51:20.354Z,11.10
2022-10-06T23:53:48.458Z,11.00
2022-10-06T23:56:16.615Z,11.10
2022-10-06T23:58:44.938Z,11.00
